sensor_id;sensor_type;location;lat;lon;timestamp;temperature;humidity
7399;DHT22;3740;50.700;7.184;2024-02-23T00:01:50;7.50;99.90
7399;DHT22;3740;50.700;7.184;2024-02-23T00:04:15;7.50;99.90
7399;DHT22;3740;50.700;7.184;2024-02-23T00:06:41;7.40;99.90
7399;DHT22;3740;50.700;7.184;2024-02-23T00:09:07;7.40;99.90
7399;DHT22;3740;50.700;7.184;2024-02-23T00:11:32;7.30;99.90
7399;DHT22;3740;50.700;7.184;2024-02-23T00:13:59;7.30;99.90
7399;DHT22;3740;50.700;7.184;2024-02-23T00:16:25;7.20;99.90
7399;DHT22;3740;50.700;7.184;2024-02-23T00:18:51;7.20;99.90
7399;DHT22;3740;50.700;7.184;2024-02-23T00:21:17;7.20;99.90
7399;DHT22;3740;50.700;7.184;2024-02-23T00:23:43;7.20;99.90
7399;DHT22;3740;50.700;7.184;2024-02-23T00:26:08;7.20;99.90
7399;DHT22;3740;50.700;7.184;2024-02-23T00:28:34;7.00;99.90
7399;DHT22;3740;50.700;7.184;2024-02-23T00:31:00;6.80;99.90
7399;DHT22;3740;50.700;7.184;2024-02-23T00:33:25;6.70;99.90
7399;DHT22;3740;50.700;7.184;2024-02-23T00:35:51;6.80;99.90
7399;DHT22;3740;50.700;7.184;2024-02-23T00:38:17;6.80;99.90
7399;DHT22;3740;50.700;7.184;2024-02-23T00:40:42;6.80;99.90
7399;DHT22;3740;50.700;7.184;2024-02-23T00:43:08;6.80;99.90
7399;DHT22;3740;50.700;7.184;2024-02-23T00:45:33;6.90;99.90
7399;DHT22;3740;50.700;7.184;2024-02-23T00:47:59;6.80;99.90
7399;DHT22;3740;50.700;7.184;2024-02-23T00:50:24;6.80;99.90
7399;DHT22;3740;50.700;7.184;2024-02-23T00:52:52;6.80;99.90
7399;DHT22;3740;50.700;7.184;2024-02-23T00:55:18;6.80;99.90
7399;DHT22;3740;50.700;7.184;2024-02-23T00:57:43;6.80;99.90
7399;DHT22;3740;50.700;7.184;2024-02-23T01:00:11;6.70;99.90
7399;DHT22;3740;50.700;7.184;2024-02-23T01:02:37;6.80;99.90
7399;DHT22;3740;50.700;7.184;2024-02-23T01:05:03;6.70;99.90
7399;DHT22;3740;50.700;7.184;2024-02-23T01:07:29;6.80;99.90
7399;DHT22;3740;50.700;7.184;2024-02-23T01:09:54;6.70;99.90
7399;DHT22;3740;50.700;7.184;2024-02-23T01:12:20;6.70;99.90
7399;DHT22;3740;50.700;7.184;2024-02-23T01:14:45;6.80;99.90
7399;DHT22;3740;50.700;7.184;2024-02-23T01:17:14;6.70;99.90
7399;DHT22;3740;50.700;7.184;2024-02-23T01:19:41;6.80;99.90
7399;DHT22;3740;50.700;7.184;2024-02-23T01:22:06;6.80;99.90
7399;DHT22;3740;50.700;7.184;2024-02-23T01:24:32;6.70;99.90
7399;DHT22;3740;50.700;7.184;2024-02-23T01:26:58;6.70;99.90
7399;DHT22;3740;50.700;7.184;2024-02-23T01:29:25;6.70;99.90
7399;DHT22;3740;50.700;7.184;2024-02-23T01:31:51;6.80;99.90
7399;DHT22;3740;50.700;7.184;2024-02-23T01:34:17;6.80;99.90
7399;DHT22;3740;50.700;7.184;2024-02-23T01:36:43;6.80;99.90
7399;DHT22;3740;50.700;7.184;2024-02-23T01:39:09;6.80;99.90
7399;DHT22;3740;50.700;7.184;2024-02-23T01:41:35;6.80;99.90
7399;DHT22;3740;50.700;7.184;2024-02-23T01:44:01;6.70;99.90
7399;DHT22;3740;50.700;7.184;2024-02-23T01:46:26;6.70;99.90
7399;DHT22;3740;50.700;7.184;2024-02-23T01:48:53;6.70;99.90
7399;DHT22;3740;50.700;7.184;2024-02-23T01:51:19;6.70;99.90
7399;DHT22;3740;50.700;7.184;2024-02-23T01:53:45;6.80;99.90
7399;DHT22;3740;50.700;7.184;2024-02-23T01:56:12;6.70;99.90
7399;DHT22;3740;50.700;7.184;2024-02-23T01:58:39;6.70;99.90
7399;DHT22;3740;50.700;7.184;2024-02-23T02:01:05;6.70;99.90
7399;DHT22;3740;50.700;7.184;2024-02-23T02:03:32;6.70;99.90
7399;DHT22;3740;50.700;7.184;2024-02-23T02:05:58;6.70;99.90
7399;DHT22;3740;50.700;7.184;2024-02-23T02:08:25;6.70;99.90
7399;DHT22;3740;50.700;7.184;2024-02-23T02:10:51;6.70;99.90
7399;DHT22;3740;50.700;7.184;2024-02-23T02:13:17;6.70;99.90
7399;DHT22;3740;50.700;7.184;2024-02-23T02:15:42;6.70;99.90
7399;DHT22;3740;50.700;7.184;2024-02-23T02:18:09;6.70;99.90
7399;DHT22;3740;50.700;7.184;2024-02-23T02:20:36;6.70;99.90
7399;DHT22;3740;50.700;7.184;2024-02-23T02:23:02;6.70;99.90
7399;DHT22;3740;50.700;7.184;2024-02-23T02:25:28;6.70;99.90
7399;DHT22;3740;50.700;7.184;2024-02-23T02:27:54;6.60;99.90
7399;DHT22;3740;50.700;7.184;2024-02-23T02:30:19;6.70;99.90
7399;DHT22;3740;50.700;7.184;2024-02-23T02:32:45;6.70;99.90
7399;DHT22;3740;50.700;7.184;2024-02-23T02:35:11;6.60;99.90
7399;DHT22;3740;50.700;7.184;2024-02-23T02:37:40;6.60;99.90
7399;DHT22;3740;50.700;7.184;2024-02-23T02:40:06;6.60;99.90
7399;DHT22;3740;50.700;7.184;2024-02-23T02:42:33;6.60;99.90
7399;DHT22;3740;50.700;7.184;2024-02-23T02:44:58;6.50;99.90
7399;DHT22;3740;50.700;7.184;2024-02-23T02:47:24;6.50;99.90
7399;DHT22;3740;50.700;7.184;2024-02-23T02:49:49;6.50;99.90
7399;DHT22;3740;50.700;7.184;2024-02-23T02:52:16;6.50;99.90
7399;DHT22;3740;50.700;7.184;2024-02-23T02:54:42;6.50;99.90
7399;DHT22;3740;50.700;7.184;2024-02-23T02:57:07;6.50;99.90
7399;DHT22;3740;50.700;7.184;2024-02-23T02:59:36;6.50;99.90
7399;DHT22;3740;50.700;7.184;2024-02-23T03:02:01;6.40;99.90
7399;DHT22;3740;50.700;7.184;2024-02-23T03:04:27;6.40;99.90
7399;DHT22;3740;50.700;7.184;2024-02-23T03:06:52;6.40;99.90
7399;DHT22;3740;50.700;7.184;2024-02-23T03:09:18;6.30;99.90
7399;DHT22;3740;50.700;7.184;2024-02-23T03:11:44;6.30;99.90
7399;DHT22;3740;50.700;7.184;2024-02-23T03:14:09;6.30;99.90
7399;DHT22;3740;50.700;7.184;2024-02-23T03:16:35;6.40;99.90
7399;DHT22;3740;50.700;7.184;2024-02-23T03:19:02;6.30;99.90
7399;DHT22;3740;50.700;7.184;2024-02-23T03:21:28;6.30;99.90
7399;DHT22;3740;50.700;7.184;2024-02-23T03:23:54;6.30;99.90
7399;DHT22;3740;50.700;7.184;2024-02-23T03:26:19;6.30;99.90
7399;DHT22;3740;50.700;7.184;2024-02-23T03:28:45;6.30;99.90
7399;DHT22;3740;50.700;7.184;2024-02-23T03:31:11;6.30;99.90
7399;DHT22;3740;50.700;7.184;2024-02-23T03:33:36;6.30;99.90
7399;DHT22;3740;50.700;7.184;2024-02-23T03:36:03;6.30;99.90
7399;DHT22;3740;50.700;7.184;2024-02-23T03:38:28;6.30;99.90
7399;DHT22;3740;50.700;7.184;2024-02-23T03:40:55;6.30;99.90
7399;DHT22;3740;50.700;7.184;2024-02-23T03:43:21;6.30;99.90
7399;DHT22;3740;50.700;7.184;2024-02-23T03:45:46;6.40;99.90
7399;DHT22;3740;50.700;7.184;2024-02-23T03:48:12;6.40;99.90
7399;DHT22;3740;50.700;7.184;2024-02-23T03:50:37;6.30;99.90
7399;DHT22;3740;50.700;7.184;2024-02-23T03:53:03;6.30;99.90
7399;DHT22;3740;50.700;7.184;2024-02-23T03:55:29;6.30;99.90
7399;DHT22;3740;50.700;7.184;2024-02-23T03:57:54;6.30;99.90
7399;DHT22;3740;50.700;7.184;2024-02-23T04:00:20;6.40;99.90
7399;DHT22;3740;50.700;7.184;2024-02-23T04:02:47;6.30;99.90
7399;DHT22;3740;50.700;7.184;2024-02-23T04:05:13;6.30;99.90
7399;DHT22;3740;50.700;7.184;2024-02-23T04:07:38;6.30;99.90
7399;DHT22;3740;50.700;7.184;2024-02-23T04:10:04;6.30;99.90
7399;DHT22;3740;50.700;7.184;2024-02-23T04:12:30;6.30;99.90
7399;DHT22;3740;50.700;7.184;2024-02-23T04:14:56;6.30;99.90
7399;DHT22;3740;50.700;7.184;2024-02-23T04:17:22;6.30;99.90
7399;DHT22;3740;50.700;7.184;2024-02-23T04:19:47;6.30;99.90
7399;DHT22;3740;50.700;7.184;2024-02-23T04:22:13;6.30;99.90
7399;DHT22;3740;50.700;7.184;2024-02-23T04:24:39;6.30;99.90
7399;DHT22;3740;50.700;7.184;2024-02-23T04:27:08;6.30;99.90
7399;DHT22;3740;50.700;7.184;2024-02-23T04:29:34;6.30;99.90
7399;DHT22;3740;50.700;7.184;2024-02-23T04:32:00;6.30;99.90
7399;DHT22;3740;50.700;7.184;2024-02-23T04:34:26;6.30;99.90
7399;DHT22;3740;50.700;7.184;2024-02-23T04:36:52;6.40;99.90
7399;DHT22;3740;50.700;7.184;2024-02-23T04:39:18;6.40;99.90
7399;DHT22;3740;50.700;7.184;2024-02-23T04:41:43;6.30;99.90
7399;DHT22;3740;50.700;7.184;2024-02-23T04:44:09;6.30;99.90
7399;DHT22;3740;50.700;7.184;2024-02-23T04:46:34;6.30;99.90
7399;DHT22;3740;50.700;7.184;2024-02-23T04:49:01;6.30;99.90
7399;DHT22;3740;50.700;7.184;2024-02-23T04:51:27;6.30;99.90
7399;DHT22;3740;50.700;7.184;2024-02-23T04:53:52;6.30;99.90
7399;DHT22;3740;50.700;7.184;2024-02-23T04:56:18;6.30;99.90
7399;DHT22;3740;50.700;7.184;2024-02-23T04:58:44;6.40;99.90
7399;DHT22;3740;50.700;7.184;2024-02-23T05:01:09;6.40;99.90
7399;DHT22;3740;50.700;7.184;2024-02-23T05:03:36;6.40;99.90
7399;DHT22;3740;50.700;7.184;2024-02-23T05:06:02;6.30;99.90
7399;DHT22;3740;50.700;7.184;2024-02-23T05:08:28;6.30;99.90
7399;DHT22;3740;50.700;7.184;2024-02-23T05:10:56;6.30;99.90
7399;DHT22;3740;50.700;7.184;2024-02-23T05:13:21;6.30;99.90
7399;DHT22;3740;50.700;7.184;2024-02-23T05:15:47;6.30;99.90
7399;DHT22;3740;50.700;7.184;2024-02-23T05:18:12;6.30;99.90
7399;DHT22;3740;50.700;7.184;2024-02-23T05:20:38;6.30;99.90
7399;DHT22;3740;50.700;7.184;2024-02-23T05:23:04;6.30;99.90
7399;DHT22;3740;50.700;7.184;2024-02-23T05:25:29;6.30;99.90
7399;DHT22;3740;50.700;7.184;2024-02-23T05:27:55;6.30;99.90
7399;DHT22;3740;50.700;7.184;2024-02-23T05:30:20;6.30;99.90
7399;DHT22;3740;50.700;7.184;2024-02-23T05:32:47;6.30;99.90
7399;DHT22;3740;50.700;7.184;2024-02-23T05:35:13;6.30;99.90
7399;DHT22;3740;50.700;7.184;2024-02-23T05:37:38;6.30;99.90
7399;DHT22;3740;50.700;7.184;2024-02-23T05:40:04;6.30;99.90
7399;DHT22;3740;50.700;7.184;2024-02-23T05:42:38;6.30;99.90
7399;DHT22;3740;50.700;7.184;2024-02-23T05:45:04;6.40;99.90
7399;DHT22;3740;50.700;7.184;2024-02-23T05:47:35;6.30;99.90
7399;DHT22;3740;50.700;7.184;2024-02-23T05:50:02;6.30;99.90
7399;DHT22;3740;50.700;7.184;2024-02-23T05:52:28;6.30;99.90
7399;DHT22;3740;50.700;7.184;2024-02-23T05:54:53;6.30;99.90
7399;DHT22;3740;50.700;7.184;2024-02-23T05:57:21;6.30;99.90
7399;DHT22;3740;50.700;7.184;2024-02-23T05:59:47;6.40;99.90
7399;DHT22;3740;50.700;7.184;2024-02-23T06:02:13;6.40;99.90
7399;DHT22;3740;50.700;7.184;2024-02-23T06:04:40;6.30;99.90
7399;DHT22;3740;50.700;7.184;2024-02-23T06:07:06;6.30;99.90
7399;DHT22;3740;50.700;7.184;2024-02-23T06:09:31;6.40;99.90
7399;DHT22;3740;50.700;7.184;2024-02-23T06:11:57;6.40;99.90
7399;DHT22;3740;50.700;7.184;2024-02-23T06:14:22;6.40;99.90
7399;DHT22;3740;50.700;7.184;2024-02-23T06:16:49;6.40;99.90
7399;DHT22;3740;50.700;7.184;2024-02-23T06:19:15;6.40;99.90
7399;DHT22;3740;50.700;7.184;2024-02-23T06:21:40;6.40;99.90
7399;DHT22;3740;50.700;7.184;2024-02-23T06:24:07;6.50;99.90
7399;DHT22;3740;50.700;7.184;2024-02-23T06:26:34;6.50;99.90
7399;DHT22;3740;50.700;7.184;2024-02-23T06:29:00;6.60;99.90
7399;DHT22;3740;50.700;7.184;2024-02-23T06:31:26;6.70;99.90
7399;DHT22;3740;50.700;7.184;2024-02-23T06:33:51;6.60;99.90
7399;DHT22;3740;50.700;7.184;2024-02-23T06:36:17;6.70;99.90
7399;DHT22;3740;50.700;7.184;2024-02-23T06:38:44;6.70;99.90
7399;DHT22;3740;50.700;7.184;2024-02-23T06:41:11;6.70;99.90
7399;DHT22;3740;50.700;7.184;2024-02-23T06:43:37;6.70;99.90
7399;DHT22;3740;50.700;7.184;2024-02-23T06:46:09;6.70;99.90
7399;DHT22;3740;50.700;7.184;2024-02-23T06:48:38;6.70;99.90
7399;DHT22;3740;50.700;7.184;2024-02-23T06:51:04;6.70;99.90
7399;DHT22;3740;50.700;7.184;2024-02-23T06:53:30;6.80;99.90
7399;DHT22;3740;50.700;7.184;2024-02-23T06:55:56;6.80;99.90
7399;DHT22;3740;50.700;7.184;2024-02-23T06:58:21;6.90;99.90
7399;DHT22;3740;50.700;7.184;2024-02-23T07:00:47;6.90;99.90
7399;DHT22;3740;50.700;7.184;2024-02-23T07:03:13;6.80;99.90
7399;DHT22;3740;50.700;7.184;2024-02-23T07:05:40;6.80;99.90
7399;DHT22;3740;50.700;7.184;2024-02-23T07:08:07;6.80;99.90
7399;DHT22;3740;50.700;7.184;2024-02-23T07:10:33;6.80;99.90
7399;DHT22;3740;50.700;7.184;2024-02-23T07:12:58;6.80;99.90
7399;DHT22;3740;50.700;7.184;2024-02-23T07:15:24;6.80;99.90
7399;DHT22;3740;50.700;7.184;2024-02-23T07:17:54;6.80;99.90
7399;DHT22;3740;50.700;7.184;2024-02-23T07:20:19;6.80;99.90
7399;DHT22;3740;50.700;7.184;2024-02-23T07:22:46;6.80;99.90
7399;DHT22;3740;50.700;7.184;2024-02-23T07:25:15;6.80;99.90
7399;DHT22;3740;50.700;7.184;2024-02-23T07:27:41;7.00;99.90
7399;DHT22;3740;50.700;7.184;2024-02-23T07:30:07;7.00;99.90
7399;DHT22;3740;50.700;7.184;2024-02-23T07:32:33;7.00;99.90
7399;DHT22;3740;50.700;7.184;2024-02-23T07:34:59;7.10;99.90
7399;DHT22;3740;50.700;7.184;2024-02-23T07:37:26;7.10;99.90
7399;DHT22;3740;50.700;7.184;2024-02-23T07:39:52;7.20;99.90
7399;DHT22;3740;50.700;7.184;2024-02-23T07:42:18;7.20;99.90
7399;DHT22;3740;50.700;7.184;2024-02-23T07:44:44;7.30;99.90
7399;DHT22;3740;50.700;7.184;2024-02-23T07:47:11;7.40;99.90
7399;DHT22;3740;50.700;7.184;2024-02-23T07:49:36;7.40;99.90
7399;DHT22;3740;50.700;7.184;2024-02-23T07:52:03;7.40;99.90
7399;DHT22;3740;50.700;7.184;2024-02-23T07:54:28;7.40;99.90
7399;DHT22;3740;50.700;7.184;2024-02-23T07:56:54;7.40;99.90
7399;DHT22;3740;50.700;7.184;2024-02-23T07:59:20;7.40;99.90
7399;DHT22;3740;50.700;7.184;2024-02-23T08:01:45;7.40;99.90
7399;DHT22;3740;50.700;7.184;2024-02-23T08:04:12;7.40;99.90
7399;DHT22;3740;50.700;7.184;2024-02-23T08:06:39;7.40;99.90
7399;DHT22;3740;50.700;7.184;2024-02-23T08:09:04;7.50;99.90
7399;DHT22;3740;50.700;7.184;2024-02-23T08:11:30;7.50;99.90
7399;DHT22;3740;50.700;7.184;2024-02-23T08:13:55;7.60;99.90
7399;DHT22;3740;50.700;7.184;2024-02-23T08:16:21;7.60;99.90
7399;DHT22;3740;50.700;7.184;2024-02-23T08:18:47;7.60;99.90
7399;DHT22;3740;50.700;7.184;2024-02-23T08:21:12;7.70;99.90
7399;DHT22;3740;50.700;7.184;2024-02-23T08:23:38;7.70;99.90
7399;DHT22;3740;50.700;7.184;2024-02-23T08:26:03;7.70;99.90
7399;DHT22;3740;50.700;7.184;2024-02-23T08:28:29;7.70;99.90
7399;DHT22;3740;50.700;7.184;2024-02-23T08:30:55;7.70;99.90
7399;DHT22;3740;50.700;7.184;2024-02-23T08:33:20;7.70;99.90
7399;DHT22;3740;50.700;7.184;2024-02-23T08:35:46;7.70;99.90
7399;DHT22;3740;50.700;7.184;2024-02-23T08:38:14;7.80;99.90
7399;DHT22;3740;50.700;7.184;2024-02-23T08:40:39;7.90;99.90
7399;DHT22;3740;50.700;7.184;2024-02-23T08:43:05;8.10;99.90
7399;DHT22;3740;50.700;7.184;2024-02-23T08:45:31;8.10;99.90
7399;DHT22;3740;50.700;7.184;2024-02-23T08:47:56;8.20;99.90
7399;DHT22;3740;50.700;7.184;2024-02-23T08:50:22;8.20;99.90
7399;DHT22;3740;50.700;7.184;2024-02-23T08:52:47;8.30;99.90
7399;DHT22;3740;50.700;7.184;2024-02-23T08:55:13;8.30;99.90
7399;DHT22;3740;50.700;7.184;2024-02-23T08:57:39;8.20;99.90
7399;DHT22;3740;50.700;7.184;2024-02-23T09:00:05;8.20;99.90
7399;DHT22;3740;50.700;7.184;2024-02-23T09:02:31;8.30;99.90
7399;DHT22;3740;50.700;7.184;2024-02-23T09:04:58;8.40;99.90
7399;DHT22;3740;50.700;7.184;2024-02-23T09:07:23;8.40;99.90
7399;DHT22;3740;50.700;7.184;2024-02-23T09:09:49;8.40;99.90
7399;DHT22;3740;50.700;7.184;2024-02-23T09:12:15;8.40;99.90
7399;DHT22;3740;50.700;7.184;2024-02-23T09:14:45;8.30;99.90
7399;DHT22;3740;50.700;7.184;2024-02-23T09:17:11;8.30;99.90
7399;DHT22;3740;50.700;7.184;2024-02-23T09:19:38;8.30;99.90
7399;DHT22;3740;50.700;7.184;2024-02-23T09:22:03;8.20;99.90
7399;DHT22;3740;50.700;7.184;2024-02-23T09:24:29;8.20;99.90
7399;DHT22;3740;50.700;7.184;2024-02-23T09:26:54;8.20;99.90
7399;DHT22;3740;50.700;7.184;2024-02-23T09:29:20;8.30;99.90
7399;DHT22;3740;50.700;7.184;2024-02-23T09:31:46;8.40;99.90
7399;DHT22;3740;50.700;7.184;2024-02-23T09:34:12;8.30;99.90
7399;DHT22;3740;50.700;7.184;2024-02-23T09:36:38;8.30;99.90
7399;DHT22;3740;50.700;7.184;2024-02-23T09:39:03;8.40;99.90
7399;DHT22;3740;50.700;7.184;2024-02-23T09:41:30;8.40;99.90
7399;DHT22;3740;50.700;7.184;2024-02-23T09:43:58;8.50;99.90
7399;DHT22;3740;50.700;7.184;2024-02-23T09:46:25;8.60;99.90
7399;DHT22;3740;50.700;7.184;2024-02-23T09:48:51;8.60;99.90
7399;DHT22;3740;50.700;7.184;2024-02-23T09:51:17;8.70;99.90
7399;DHT22;3740;50.700;7.184;2024-02-23T09:53:43;8.60;99.90
7399;DHT22;3740;50.700;7.184;2024-02-23T09:56:10;8.70;99.90
7399;DHT22;3740;50.700;7.184;2024-02-23T09:58:36;8.60;99.90
7399;DHT22;3740;50.700;7.184;2024-02-23T10:01:03;8.60;99.90
7399;DHT22;3740;50.700;7.184;2024-02-23T10:03:30;8.80;99.90
7399;DHT22;3740;50.700;7.184;2024-02-23T10:05:59;8.90;99.90
7399;DHT22;3740;50.700;7.184;2024-02-23T10:08:28;9.00;99.90
7399;DHT22;3740;50.700;7.184;2024-02-23T10:10:55;9.00;99.90
7399;DHT22;3740;50.700;7.184;2024-02-23T10:13:22;9.10;99.90
7399;DHT22;3740;50.700;7.184;2024-02-23T10:15:50;9.30;99.90
7399;DHT22;3740;50.700;7.184;2024-02-23T10:18:16;9.50;99.90
7399;DHT22;3740;50.700;7.184;2024-02-23T10:20:42;9.60;99.90
7399;DHT22;3740;50.700;7.184;2024-02-23T10:23:08;10.00;99.90
7399;DHT22;3740;50.700;7.184;2024-02-23T10:25:35;10.60;99.90
7399;DHT22;3740;50.700;7.184;2024-02-23T10:28:06;11.20;99.90
7399;DHT22;3740;50.700;7.184;2024-02-23T10:30:33;13.40;99.90
7399;DHT22;3740;50.700;7.184;2024-02-23T10:32:59;15.30;99.90
7399;DHT22;3740;50.700;7.184;2024-02-23T10:35:25;16.40;98.00
7399;DHT22;3740;50.700;7.184;2024-02-23T10:37:53;17.50;92.80
7399;DHT22;3740;50.700;7.184;2024-02-23T10:40:21;18.20;88.70
7399;DHT22;3740;50.700;7.184;2024-02-23T10:42:50;18.80;84.30
7399;DHT22;3740;50.700;7.184;2024-02-23T10:45:21;18.70;83.60
7399;DHT22;3740;50.700;7.184;2024-02-23T10:47:50;17.90;82.50
7399;DHT22;3740;50.700;7.184;2024-02-23T10:50:16;16.80;90.90
7399;DHT22;3740;50.700;7.184;2024-02-23T10:52:42;15.20;94.60
7399;DHT22;3740;50.700;7.184;2024-02-23T10:55:11;14.70;98.00
7399;DHT22;3740;50.700;7.184;2024-02-23T10:57:37;13.70;99.90
7399;DHT22;3740;50.700;7.184;2024-02-23T11:00:05;13.50;99.90
7399;DHT22;3740;50.700;7.184;2024-02-23T11:02:40;12.70;99.90
7399;DHT22;3740;50.700;7.184;2024-02-23T11:05:07;11.60;99.90
7399;DHT22;3740;50.700;7.184;2024-02-23T11:07:38;10.90;99.90
7399;DHT22;3740;50.700;7.184;2024-02-23T11:10:06;10.10;99.90
7399;DHT22;3740;50.700;7.184;2024-02-23T11:12:33;9.60;99.90
7399;DHT22;3740;50.700;7.184;2024-02-23T11:14:59;9.30;99.90
7399;DHT22;3740;50.700;7.184;2024-02-23T11:17:33;9.40;99.90
7399;DHT22;3740;50.700;7.184;2024-02-23T11:20:03;10.10;99.90
7399;DHT22;3740;50.700;7.184;2024-02-23T11:22:33;11.40;99.90
7399;DHT22;3740;50.700;7.184;2024-02-23T11:25:04;11.70;99.90
7399;DHT22;3740;50.700;7.184;2024-02-23T11:27:32;12.20;99.90
7399;DHT22;3740;50.700;7.184;2024-02-23T11:30:03;12.90;99.90
7399;DHT22;3740;50.700;7.184;2024-02-23T11:32:43;13.20;99.90
7399;DHT22;3740;50.700;7.184;2024-02-23T11:35:11;13.20;99.90
7399;DHT22;3740;50.700;7.184;2024-02-23T11:37:47;13.40;99.90
7399;DHT22;3740;50.700;7.184;2024-02-23T11:40:13;14.80;99.90
7399;DHT22;3740;50.700;7.184;2024-02-23T11:42:41;15.30;99.90
7399;DHT22;3740;50.700;7.184;2024-02-23T11:45:08;15.20;99.90
7399;DHT22;3740;50.700;7.184;2024-02-23T11:47:34;14.20;99.90
7399;DHT22;3740;50.700;7.184;2024-02-23T11:49:59;14.30;99.90
7399;DHT22;3740;50.700;7.184;2024-02-23T11:52:25;15.20;99.90
7399;DHT22;3740;50.700;7.184;2024-02-23T11:54:51;16.00;99.90
7399;DHT22;3740;50.700;7.184;2024-02-23T11:57:16;15.80;99.90
7399;DHT22;3740;50.700;7.184;2024-02-23T11:59:42;15.00;99.90
7399;DHT22;3740;50.700;7.184;2024-02-23T12:02:07;14.10;99.90
7399;DHT22;3740;50.700;7.184;2024-02-23T12:04:33;13.70;99.90
7399;DHT22;3740;50.700;7.184;2024-02-23T12:06:59;13.30;99.90
7399;DHT22;3740;50.700;7.184;2024-02-23T12:09:26;14.20;99.90
7399;DHT22;3740;50.700;7.184;2024-02-23T12:11:51;14.10;99.90
7399;DHT22;3740;50.700;7.184;2024-02-23T12:14:17;13.80;99.90
7399;DHT22;3740;50.700;7.184;2024-02-23T12:16:43;13.10;99.90
7399;DHT22;3740;50.700;7.184;2024-02-23T12:19:08;12.70;99.90
7399;DHT22;3740;50.700;7.184;2024-02-23T12:21:35;12.30;99.90
7399;DHT22;3740;50.700;7.184;2024-02-23T12:24:07;11.80;99.90
7399;DHT22;3740;50.700;7.184;2024-02-23T12:26:35;11.50;99.90
7399;DHT22;3740;50.700;7.184;2024-02-23T12:29:02;11.30;99.90
7399;DHT22;3740;50.700;7.184;2024-02-23T12:31:28;11.30;99.90
7399;DHT22;3740;50.700;7.184;2024-02-23T12:33:53;11.50;99.90
7399;DHT22;3740;50.700;7.184;2024-02-23T12:36:19;11.70;99.90
7399;DHT22;3740;50.700;7.184;2024-02-23T12:38:45;11.70;99.90
7399;DHT22;3740;50.700;7.184;2024-02-23T12:41:11;11.70;99.90
7399;DHT22;3740;50.700;7.184;2024-02-23T12:43:36;11.50;99.90
7399;DHT22;3740;50.700;7.184;2024-02-23T12:46:02;11.80;99.90
7399;DHT22;3740;50.700;7.184;2024-02-23T12:48:28;12.50;99.90
7399;DHT22;3740;50.700;7.184;2024-02-23T12:50:54;13.20;99.90
7399;DHT22;3740;50.700;7.184;2024-02-23T12:53:38;13.20;99.90
7399;DHT22;3740;50.700;7.184;2024-02-23T12:56:05;13.10;99.90
7399;DHT22;3740;50.700;7.184;2024-02-23T12:58:33;12.70;99.90
7399;DHT22;3740;50.700;7.184;2024-02-23T13:00:59;12.60;99.90
7399;DHT22;3740;50.700;7.184;2024-02-23T13:03:26;12.30;99.90
7399;DHT22;3740;50.700;7.184;2024-02-23T13:05:55;11.90;99.90
7399;DHT22;3740;50.700;7.184;2024-02-23T13:08:22;11.60;99.90
7399;DHT22;3740;50.700;7.184;2024-02-23T13:10:48;11.80;99.90
7399;DHT22;3740;50.700;7.184;2024-02-23T13:13:14;11.70;99.90
7399;DHT22;3740;50.700;7.184;2024-02-23T13:15:41;11.60;99.90
7399;DHT22;3740;50.700;7.184;2024-02-23T13:18:07;11.60;99.90
7399;DHT22;3740;50.700;7.184;2024-02-23T13:20:32;11.10;99.90
7399;DHT22;3740;50.700;7.184;2024-02-23T13:22:58;10.90;99.90
7399;DHT22;3740;50.700;7.184;2024-02-23T13:25:24;11.30;99.90
7399;DHT22;3740;50.700;7.184;2024-02-23T13:27:49;11.80;99.90
7399;DHT22;3740;50.700;7.184;2024-02-23T13:30:15;12.10;99.90
7399;DHT22;3740;50.700;7.184;2024-02-23T13:32:41;12.60;99.90
7399;DHT22;3740;50.700;7.184;2024-02-23T13:35:06;13.00;99.90
7399;DHT22;3740;50.700;7.184;2024-02-23T13:37:34;13.20;99.90
7399;DHT22;3740;50.700;7.184;2024-02-23T13:40:00;13.20;99.90
7399;DHT22;3740;50.700;7.184;2024-02-23T13:42:25;13.50;99.90
7399;DHT22;3740;50.700;7.184;2024-02-23T13:44:51;13.60;99.90
7399;DHT22;3740;50.700;7.184;2024-02-23T13:47:16;13.90;99.90
7399;DHT22;3740;50.700;7.184;2024-02-23T13:49:42;14.30;99.90
7399;DHT22;3740;50.700;7.184;2024-02-23T13:52:08;14.50;99.90
7399;DHT22;3740;50.700;7.184;2024-02-23T13:54:34;14.70;99.90
7399;DHT22;3740;50.700;7.184;2024-02-23T13:56:59;14.70;99.90
7399;DHT22;3740;50.700;7.184;2024-02-23T13:59:25;14.80;99.90
7399;DHT22;3740;50.700;7.184;2024-02-23T14:01:50;14.70;99.90
7399;DHT22;3740;50.700;7.184;2024-02-23T14:04:16;14.50;99.90
7399;DHT22;3740;50.700;7.184;2024-02-23T14:06:42;14.40;99.90
7399;DHT22;3740;50.700;7.184;2024-02-23T14:09:08;14.10;99.90
7399;DHT22;3740;50.700;7.184;2024-02-23T14:11:34;13.80;99.90
7399;DHT22;3740;50.700;7.184;2024-02-23T14:14:00;13.80;99.90
7399;DHT22;3740;50.700;7.184;2024-02-23T14:16:25;13.50;99.90
7399;DHT22;3740;50.700;7.184;2024-02-23T14:18:51;13.70;99.90
7399;DHT22;3740;50.700;7.184;2024-02-23T14:21:17;13.60;99.90
7399;DHT22;3740;50.700;7.184;2024-02-23T14:23:43;13.50;99.90
7399;DHT22;3740;50.700;7.184;2024-02-23T14:26:09;13.30;99.90
7399;DHT22;3740;50.700;7.184;2024-02-23T14:28:35;13.00;99.90
7399;DHT22;3740;50.700;7.184;2024-02-23T14:31:00;12.90;99.90
7399;DHT22;3740;50.700;7.184;2024-02-23T14:33:26;12.60;99.90
7399;DHT22;3740;50.700;7.184;2024-02-23T14:35:52;12.30;99.90
7399;DHT22;3740;50.700;7.184;2024-02-23T14:38:17;12.10;99.90
7399;DHT22;3740;50.700;7.184;2024-02-23T14:40:43;12.10;99.90
7399;DHT22;3740;50.700;7.184;2024-02-23T14:43:09;12.00;99.90
7399;DHT22;3740;50.700;7.184;2024-02-23T14:45:35;11.90;99.90
7399;DHT22;3740;50.700;7.184;2024-02-23T14:48:01;12.00;99.90
7399;DHT22;3740;50.700;7.184;2024-02-23T14:50:26;12.10;99.90
7399;DHT22;3740;50.700;7.184;2024-02-23T14:52:52;12.30;99.90
7399;DHT22;3740;50.700;7.184;2024-02-23T14:55:18;12.70;99.90
7399;DHT22;3740;50.700;7.184;2024-02-23T14:57:43;12.80;99.90
7399;DHT22;3740;50.700;7.184;2024-02-23T15:00:09;12.70;99.90
7399;DHT22;3740;50.700;7.184;2024-02-23T15:02:35;12.60;99.90
7399;DHT22;3740;50.700;7.184;2024-02-23T15:05:01;12.20;99.90
7399;DHT22;3740;50.700;7.184;2024-02-23T15:07:26;12.00;99.90
7399;DHT22;3740;50.700;7.184;2024-02-23T15:09:53;12.60;99.90
7399;DHT22;3740;50.700;7.184;2024-02-23T15:12:19;11.60;99.90
7399;DHT22;3740;50.700;7.184;2024-02-23T15:14:47;11.30;99.90
7399;DHT22;3740;50.700;7.184;2024-02-23T15:17:12;11.10;99.90
7399;DHT22;3740;50.700;7.184;2024-02-23T15:19:38;11.00;99.90
7399;DHT22;3740;50.700;7.184;2024-02-23T15:22:04;11.00;99.90
7399;DHT22;3740;50.700;7.184;2024-02-23T15:24:30;11.00;99.90
7399;DHT22;3740;50.700;7.184;2024-02-23T15:26:56;11.10;99.90
7399;DHT22;3740;50.700;7.184;2024-02-23T15:29:21;11.10;99.90
7399;DHT22;3740;50.700;7.184;2024-02-23T15:31:47;11.10;99.90
7399;DHT22;3740;50.700;7.184;2024-02-23T15:34:12;11.00;99.90
7399;DHT22;3740;50.700;7.184;2024-02-23T15:36:38;10.90;99.90
7399;DHT22;3740;50.700;7.184;2024-02-23T15:39:04;11.00;99.90
7399;DHT22;3740;50.700;7.184;2024-02-23T15:41:32;10.90;99.90
7399;DHT22;3740;50.700;7.184;2024-02-23T15:44:02;10.90;99.90
7399;DHT22;3740;50.700;7.184;2024-02-23T15:46:28;10.80;99.90
7399;DHT22;3740;50.700;7.184;2024-02-23T15:48:55;10.80;99.90
7399;DHT22;3740;50.700;7.184;2024-02-23T15:51:20;10.80;99.90
7399;DHT22;3740;50.700;7.184;2024-02-23T15:53:46;10.70;99.90
7399;DHT22;3740;50.700;7.184;2024-02-23T15:56:12;10.70;99.90
7399;DHT22;3740;50.700;7.184;2024-02-23T15:58:38;10.80;99.90
7399;DHT22;3740;50.700;7.184;2024-02-23T16:01:04;11.00;99.90
7399;DHT22;3740;50.700;7.184;2024-02-23T16:03:30;11.30;99.90
7399;DHT22;3740;50.700;7.184;2024-02-23T16:05:55;11.50;99.90